Time;durP1;ratioP1;P1;durP2;ratioP2;P2;SDS_P1;SDS_P2;PMS_P1;PMS_P2;Temp;Humidity;BMP_temperature;BMP_pressure;BME280_temperature;BME280_humidity;BME280_pressure;Samples;Min_cycle;Max_cycle;Signal;HPM_P1;HPM_P2
2022/03/30 00:00:30;;;;;;;;;;;;;;;;;;4989396;28;20020;-64
2022/03/30 00:02:56;;;;;;;;;;;;;;;;;;4988324;28;20389;-64
2022/03/30 00:05:22;;;;;;;;;;;;;;;;;;4988454;28;20057;-64
2022/03/30 00:07:50;;;;;;;;;;;;;;;;;;4990386;28;19973;-64
2022/03/30 00:10:16;;;;;;;;;;;;;;;;;;4988478;28;20059;-64
2022/03/30 00:12:43;;;;;;;;;;;;;;;;;;4988257;28;20377;-64
2022/03/30 00:15:16;;;;;;;;;;;;;;;;;;4987381;28;19922;-64
2022/03/30 00:17:43;;;;;;;;;;;;;;;;;;4987925;28;19996;-64
2022/03/30 00:20:09;;;;;;;;;;;;;;;;;;4988261;28;20025;-64
2022/03/30 00:22:35;;;;;;;;;;;;;;;;;;4986489;28;20398;-64
2022/03/30 00:25:02;;;;;;;;;;;;;;;;;;4984444;28;19921;-64
2022/03/30 00:27:28;;;;;;;;;;;;;;;;;;4989218;28;20008;-64
2022/03/30 00:30:01;;;;;;;;;;;;;;;;;;4989220;28;20404;-64
2022/03/30 00:32:27;;;;;;;;;;;;;;;;;;4984689;28;19922;-64
2022/03/30 00:34:53;;;;;;;;;;;;;;;;;;4988013;28;19976;-65
2022/03/30 00:37:20;;;;;;;;;;;;;;;;;;4984825;28;19972;-64
2022/03/30 00:39:46;;;;;;;;;;;;;;;;;;4987421;28;20444;-64
2022/03/30 00:42:13;;;;;;;;;;;;;;;;;;4988585;28;20040;-64
2022/03/30 00:44:40;;;;;;;;;;;;;;;;;;4985665;28;20052;-64
2022/03/30 00:47:06;;;;;;;;;;;;;;;;;;4988668;28;19964;-64
2022/03/30 00:49:32;;;;;;;;;;;;;;;;;;4984836;28;19926;-64
2022/03/30 00:52:06;;;;;;;;;;;;;;;;;;4991410;28;20524;-64
2022/03/30 00:54:33;;;;;;;;;;;;;;;;;;4991507;28;19926;-64
2022/03/30 00:56:59;;;;;;;;;;;;;;;;;;4990722;28;19976;-64
2022/03/30 00:59:26;;;;;;;;;;;;;;;;;;4990636;28;20017;-64
2022/03/30 01:01:52;;;;;;;;;;;;;;;;;;4991896;28;20017;-64
2022/03/30 01:04:18;;;;;;;;;;;;;;;;;;4990270;28;19925;-64
2022/03/30 01:06:51;;;;;;;;;;;;;;;;;;4990879;28;19922;-64
2022/03/30 01:09:17;;;;;;;;;;;;;;;;;;4991790;28;20022;-64
2022/03/30 01:11:44;;;;;;;;;;;;;;;;;;4990612;28;20026;-64
2022/03/30 01:14:17;;;;;;;;;;;;;;;;;;4991453;28;19964;-64
2022/03/30 01:16:43;;;;;;;;;;;;;;;;;;4990149;28;20017;-63
2022/03/30 01:19:10;;;;;;;;;;;;;;;;;;4991141;28;20247;-64
2022/03/30 01:21:43;;;;;;;;;;;;;;;;;;4990740;28;19957;-64
2022/03/30 01:24:10;;;;;;;;;;;;;;;;;;4989919;28;20020;-63
2022/03/30 01:26:37;;;;;;;;;;;;;;;;;;4975321;28;19965;-64
2022/03/30 01:32:24;;;;;;;;;;;;;;;;;;4987819;28;20349;-64
2022/03/30 01:34:38;;;;;;;;;;;;;;;;;;4990792;28;20028;-64
2022/03/30 01:37:04;;;;;;;;;;;;;;;;;;4989566;28;20021;-63
2022/03/30 01:39:30;;;;;;;;;;;;;;;;;;4989331;28;19992;-63
2022/03/30 01:41:57;;;;;;;;;;;;;;;;;;4989861;28;20000;-63
2022/03/30 01:44:24;;;;;;;;;;;;;;;;;;4992653;28;19969;-63
2022/03/30 01:46:50;;;;;;;;;;;;;;;;;;4990951;28;20024;-64
2022/03/30 01:49:21;;;;;;;;;;;;;;;;;;4992111;28;19968;-63
2022/03/30 01:51:48;;;;;;;;;;;;;;;;;;4990363;28;19961;-63
2022/03/30 01:54:15;;;;;;;;;;;;;;;;;;4991761;28;20311;-63
2022/03/30 01:56:48;;;;;;;;;;;;;;;;;;4991382;28;19997;-63
2022/03/30 01:59:14;;;;;;;;;;;;;;;;;;4989319;28;20021;-63
2022/03/30 02:01:43;;;;;;;;;;;;;;;;;;4991240;28;19925;-63
2022/03/30 02:04:10;;;;;;;;;;;;;;;;;;4988972;28;20005;-64
2022/03/30 02:06:36;;;;;;;;;;;;;;;;;;4989425;28;19953;-63
2022/03/30 02:09:02;;;;;;;;;;;;;;;;;;4991076;28;19999;-63
2022/03/30 02:11:35;;;;;;;;;;;;;;;;;;4990391;28;19964;-63
2022/03/30 02:14:01;;;;;;;;;;;;;;;;;;4991433;28;20153;-63
2022/03/30 02:16:27;;;;;;;;;;;;;;;;;;4991113;28;20113;-63
2022/03/30 02:19:00;;;;;;;;;;;;;;;;;;4989132;28;19926;-63
2022/03/30 02:21:26;;;;;;;;;;;;;;;;;;4989572;28;19980;-63
2022/03/30 02:23:53;;;;;;;;;;;;;;;;;;4988559;28;19979;-63
2022/03/30 02:26:19;;;;;;;;;;;;;;;;;;4991187;28;20297;-63
2022/03/30 02:28:45;;;;;;;;;;;;;;;;;;4989543;28;20289;-63
2022/03/30 02:31:11;;;;;;;;;;;;;;;;;;4986126;28;19926;-63
2022/03/30 02:33:39;;;;;;;;;;;;;;;;;;4990266;28;19968;-63
2022/03/30 02:36:05;;;;;;;;;;;;;;;;;;4990787;28;19976;-63
2022/03/30 02:38:31;;;;;;;;;;;;;;;;;;4988972;28;20449;-63
2022/03/30 02:41:05;;;;;;;;;;;;;;;;;;4987717;28;20439;-62
2022/03/30 02:43:32;;;;;;;;;;;;;;;;;;4989497;28;19925;-63
2022/03/30 02:45:58;;;;;;;;;;;;;;;;;;4988567;28;20463;-63
2022/03/30 02:48:28;;;;;;;;;;;;;;;;;;4987454;28;20418;-62
2022/03/30 02:50:54;;;;;;;;;;;;;;;;;;4988282;28;20016;-63
2022/03/30 02:53:27;;;;;;;;;;;;;;;;;;4991276;28;19922;-62
2022/03/30 02:56:00;;;;;;;;;;;;;;;;;;4984826;28;19964;-62
2022/03/30 02:58:26;;;;;;;;;;;;;;;;;;4988290;28;19972;-62
2022/03/30 03:00:54;;;;;;;;;;;;;;;;;;4986828;28;19957;-62
2022/03/30 03:03:24;;;;;;;;;;;;;;;;;;4986980;28;19936;-62
2022/03/30 03:05:50;;;;;;;;;;;;;;;;;;4988127;28;19926;-62
2022/03/30 03:08:17;;;;;;;;;;;;;;;;;;4988151;28;20013;-62
2022/03/30 03:10:50;;;;;;;;;;;;;;;;;;4988168;28;19922;-63
2022/03/30 03:13:16;;;;;;;;;;;;;;;;;;4987907;28;20738;-63
2022/03/30 03:15:43;;;;;;;;;;;;;;;;;;4987685;28;19936;-63
2022/03/30 03:18:18;;;;;;;;;;;;;;;;;;4987267;28;19930;-63
2022/03/30 03:20:44;;;;;;;;;;;;;;;;;;4989107;28;19925;-63
2022/03/30 03:23:11;;;;;;;;;;;;;;;;;;4986322;28;19972;-63
2022/03/30 03:25:39;;;;;;;;;;;;;;;;;;4988332;28;19980;-63
2022/03/30 03:28:05;;;;;;;;;;;;;;;;;;4985356;28;19996;-63
2022/03/30 03:30:32;;;;;;;;;;;;;;;;;;4990668;28;20522;-62
2022/03/30 03:33:05;;;;;;;;;;;;;;;;;;4989802;28;20020;-62
2022/03/30 03:35:32;;;;;;;;;;;;;;;;;;4985706;28;19926;-62
2022/03/30 03:37:58;;;;;;;;;;;;;;;;;;4987263;28;19976;-62
2022/03/30 03:40:25;;;;;;;;;;;;;;;;;;4976316;28;20008;-62
2022/03/30 03:42:51;;;;;;;;;;;;;;;;;;4989098;28;19968;-63
2022/03/30 03:45:18;;;;;;;;;;;;;;;;;;4990643;28;19967;-62
2022/03/30 03:47:48;;;;;;;;;;;;;;;;;;4989798;28;20020;-62
2022/03/30 03:50:14;;;;;;;;;;;;;;;;;;4988454;28;20024;-62
2022/03/30 03:52:40;;;;;;;;;;;;;;;;;;4987359;28;20024;-63
2022/03/30 03:55:08;;;;;;;;;;;;;;;;;;4990101;28;19968;-62
2022/03/30 03:57:35;;;;;;;;;;;;;;;;;;4989385;28;20032;-62
2022/03/30 04:00:01;;;;;;;;;;;;;;;;;;4987063;28;19926;-62
2022/03/30 04:02:27;;;;;;;;;;;;;;;;;;4987326;28;20053;-62
2022/03/30 04:04:54;;;;;;;;;;;;;;;;;;4987695;28;19944;-62
2022/03/30 04:07:20;;;;;;;;;;;;;;;;;;4989767;28;20004;-62
2022/03/30 04:09:50;;;;;;;;;;;;;;;;;;4985929;28;19957;-62
2022/03/30 04:12:16;;;;;;;;;;;;;;;;;;4988556;28;20131;-62
2022/03/30 04:14:43;;;;;;;;;;;;;;;;;;4988769;28;19965;-62
2022/03/30 04:17:18;;;;;;;;;;;;;;;;;;4988163;28;19922;-62
2022/03/30 04:19:44;;;;;;;;;;;;;;;;;;4986499;28;19964;-62
2022/03/30 04:22:11;;;;;;;;;;;;;;;;;;4988162;28;19981;-62
2022/03/30 04:24:38;;;;;;;;;;;;;;;;;;4990299;28;19926;-62
2022/03/30 04:27:04;;;;;;;;;;;;;;;;;;4987564;28;20024;-62
2022/03/30 04:29:30;;;;;;;;;;;;;;;;;;4988349;28;20001;-62
2022/03/30 04:31:58;;;;;;;;;;;;;;;;;;4987533;28;20010;-62
2022/03/30 04:34:25;;;;;;;;;;;;;;;;;;4986529;28;19976;-62
2022/03/30 04:36:51;;;;;;;;;;;;;;;;;;4988010;28;19975;-63
2022/03/30 04:39:21;;;;;;;;;;;;;;;;;;4984804;28;20008;-62
2022/03/30 04:41:47;;;;;;;;;;;;;;;;;;4988315;28;19976;-62
2022/03/30 04:44:14;;;;;;;;;;;;;;;;;;4987491;28;19964;-62
2022/03/30 04:46:40;;;;;;;;;;;;;;;;;;4988409;28;20004;-62
2022/03/30 04:49:07;;;;;;;;;;;;;;;;;;4987763;28;19929;-62
2022/03/30 04:51:34;;;;;;;;;;;;;;;;;;4988061;28;19960;-61
2022/03/30 04:54:01;;;;;;;;;;;;;;;;;;4987044;28;19960;-62
2022/03/30 04:56:27;;;;;;;;;;;;;;;;;;4986787;28;19969;-62
2022/03/30 04:58:54;;;;;;;;;;;;;;;;;;4986660;28;19985;-62
2022/03/30 05:01:20;;;;;;;;;;;;;;;;;;4987512;28;19972;-62
2022/03/30 05:03:47;;;;;;;;;;;;;;;;;;4989142;28;19930;-62
2022/03/30 05:06:13;;;;;;;;;;;;;;;;;;4986413;28;20068;-62
2022/03/30 05:08:40;;;;;;;;;;;;;;;;;;4985300;28;20020;-62
2022/03/30 05:11:06;;;;;;;;;;;;;;;;;;4988181;28;20433;-62
2022/03/30 05:13:35;;;;;;;;;;;;;;;;;;4986465;28;20397;-62
2022/03/30 05:16:01;;;;;;;;;;;;;;;;;;4985156;28;20021;-62
2022/03/30 05:18:28;;;;;;;;;;;;;;;;;;4987528;28;20069;-62
2022/03/30 05:21:01;;;;;;;;;;;;;;;;;;4984458;28;19971;-62
2022/03/30 05:23:27;;;;;;;;;;;;;;;;;;4988715;28;20536;-62
2022/03/30 05:25:54;;;;;;;;;;;;;;;;;;4987008;28;20059;-62
2022/03/30 05:28:21;;;;;;;;;;;;;;;;;;4983354;28;19958;-62
2022/03/30 05:30:47;;;;;;;;;;;;;;;;;;4985979;28;20012;-62
2022/03/30 05:33:14;;;;;;;;;;;;;;;;;;4986497;28;19968;-61
2022/03/30 05:35:40;;;;;;;;;;;;;;;;;;4990258;28;19922;-61
2022/03/30 05:38:07;;;;;;;;;;;;;;;;;;4991198;28;20051;-62
2022/03/30 05:40:33;;;;;;;;;;;;;;;;;;4988418;28;19922;-62
2022/03/30 05:43:06;;;;;;;;;;;;;;;;;;4986281;28;20012;-61
2022/03/30 05:45:33;;;;;;;;;;;;;;;;;;4991282;28;19949;-62
2022/03/30 05:47:59;;;;;;;;;;;;;;;;;;4993272;28;19925;-62
2022/03/30 05:50:28;;;;;;;;;;;;;;;;;;4988882;28;19922;-62
2022/03/30 05:52:54;;;;;;;;;;;;;;;;;;4992024;28;20008;-62
2022/03/30 05:55:21;;;;;;;;;;;;;;;;;;4990605;28;19972;-62
2022/03/30 05:57:54;;;;;;;;;;;;;;;;;;4989981;28;20016;-62
2022/03/30 06:00:22;;;;;;;;;;;;;;;;;;4991410;28;20008;-62
2022/03/30 06:02:48;;;;;;;;;;;;;;;;;;4990317;28;20381;-62
2022/03/30 06:05:21;;;;;;;;;;;;;;;;;;4988922;28;19968;-62
2022/03/30 06:07:47;;;;;;;;;;;;;;;;;;4972724;28;19968;-62
2022/03/30 06:10:14;;;;;;;;;;;;;;;;;;4988821;28;20020;-62
2022/03/30 06:12:42;;;;;;;;;;;;;;;;;;4989391;28;20445;-62
2022/03/30 06:15:09;;;;;;;;;;;;;;;;;;4992167;28;19965;-63
2022/03/30 06:17:35;;;;;;;;;;;;;;;;;;4991575;28;20416;-63
2022/03/30 06:20:10;;;;;;;;;;;;;;;;;;4989256;28;19928;-63
2022/03/30 06:22:36;;;;;;;;;;;;;;;;;;4989902;28;20407;-64
2022/03/30 06:25:02;;;;;;;;;;;;;;;;;;4989093;28;19977;-64
2022/03/30 06:27:30;;;;;;;;;;;;;;;;;;4988349;28;19922;-64
2022/03/30 06:29:57;;;;;;;;;;;;;;;;;;4989767;28;19984;-64
2022/03/30 06:32:23;;;;;;;;;;;;;;;;;;4988270;28;19925;-64
2022/03/30 06:34:50;;;;;;;;;;;;;;;;;;4988551;28;19971;-63
2022/03/30 06:37:16;;;;;;;;;;;;;;;;;;4988388;28;19965;-64
2022/03/30 06:39:42;;;;;;;;;;;;;;;;;;4989898;28;20066;-64
2022/03/30 06:42:09;;;;;;;;;;;;;;;;;;4989073;28;19976;-64
2022/03/30 06:44:37;;;;;;;;;;;;;;;;;;4989903;28;20294;-65
2022/03/30 06:47:03;;;;;;;;;;;;;;;;;;4988634;28;19957;-66
2022/03/30 06:49:30;;;;;;;;;;;;;;;;;;4990589;28;20012;-66
2022/03/30 06:51:56;;;;;;;;;;;;;;;;;;4988660;28;20381;-66
2022/03/30 06:54:23;;;;;;;;;;;;;;;;;;4988595;28;20051;-67
2022/03/30 06:56:50;;;;;;;;;;;;;;;;;;4989208;28;19932;-67
2022/03/30 06:59:18;;;;;;;;;;;;;;;;;;4990652;28;19923;-67
2022/03/30 07:01:44;;;;;;;;;;;;;;;;;;4990404;28;19976;-67
2022/03/30 07:04:11;;;;;;;;;;;;;;;;;;4989381;28;19935;-67
2022/03/30 07:10:14;;;;;;;;;;;;;;;;;;4988354;28;20049;-67
2022/03/30 07:12:10;;;;;;;;;;;;;;;;;;4991136;28;19929;-67
2022/03/30 07:14:40;;;;;;;;;;;;;;;;;;4991859;28;19961;-67
2022/03/30 07:17:06;;;;;;;;;;;;;;;;;;4988081;28;20020;-67
2022/03/30 07:19:33;;;;;;;;;;;;;;;;;;4985727;28;20341;-67
2022/03/30 07:21:59;;;;;;;;;;;;;;;;;;4989406;28;20000;-67
2022/03/30 07:24:25;;;;;;;;;;;;;;;;;;4986591;28;20012;-67
2022/03/30 07:26:52;;;;;;;;;;;;;;;;;;4988515;28;19975;-67
2022/03/30 07:29:25;;;;;;;;;;;;;;;;;;4990937;28;20013;-67
2022/03/30 07:31:51;;;;;;;;;;;;;;;;;;4987965;28;19984;-67
2022/03/30 07:34:18;;;;;;;;;;;;;;;;;;4988242;28;19929;-67
2022/03/30 07:36:51;;;;;;;;;;;;;;;;;;4988184;28;19973;-67
2022/03/30 07:39:17;;;;;;;;;;;;;;;;;;4989078;28;20091;-68
2022/03/30 07:41:44;;;;;;;;;;;;;;;;;;4989210;28;19928;-69
2022/03/30 07:44:17;;;;;;;;;;;;;;;;;;4991391;28;19967;-68
2022/03/30 07:46:44;;;;;;;;;;;;;;;;;;4990143;28;19922;-69
2022/03/30 07:49:11;;;;;;;;;;;;;;;;;;4984790;28;20385;-69
2022/03/30 07:51:39;;;;;;;;;;;;;;;;;;4988738;28;19979;-69
2022/03/30 07:54:05;;;;;;;;;;;;;;;;;;4989453;28;20433;-70
2022/03/30 07:56:31;;;;;;;;;;;;;;;;;;4986876;28;19957;-69
2022/03/30 07:59:04;;;;;;;;;;;;;;;;;;4988015;28;20001;-70
2022/03/30 08:01:31;;;;;;;;;;;;;;;;;;4989471;28;20002;-70
2022/03/30 08:03:57;;;;;;;;;;;;;;;;;;4990391;28;20015;-70
2022/03/30 08:06:26;;;;;;;;;;;;;;;;;;4989295;28;19921;-71
2022/03/30 08:08:52;;;;;;;;;;;;;;;;;;4989324;28;20101;-70
2022/03/30 08:11:19;;;;;;;;;;;;;;;;;;4988656;28;19976;-69
2022/03/30 08:13:52;;;;;;;;;;;;;;;;;;4987535;28;19928;-71
2022/03/30 08:16:19;;;;;;;;;;;;;;;;;;4971695;28;20015;-69
2022/03/30 08:18:45;;;;;;;;;;;;;;;;;;4988924;28;20017;-69
2022/03/30 08:23:57;;;;;;;;;;;;;;;;;;4988856;28;19922;-70
2022/03/30 08:26:23;;;;;;;;;;;;;;;;;;4985103;28;20414;-71
2022/03/30 08:28:49;;;;;;;;;;;;;;;;;;4984844;28;19925;-71
2022/03/30 08:31:16;;;;;;;;;;;;;;;;;;4988766;28;19989;-72
2022/03/30 08:33:49;;;;;;;;;;;;;;;;;;4984209;28;19932;-72
2022/03/30 08:36:16;;;;;;;;;;;;;;;;;;4988772;28;20477;-72
2022/03/30 08:38:42;;;;;;;;;;;;;;;;;;4987297;28;19922;-72
2022/03/30 08:41:09;;;;;;;;;;;;;;;;;;4988185;28;20401;-73
2022/03/30 08:43:35;;;;;;;;;;;;;;;;;;4987969;28;20340;-75
2022/03/30 08:46:02;;;;;;;;;;;;;;;;;;4987305;28;19975;-75
2022/03/30 08:48:29;;;;;;;;;;;;;;;;;;4988692;28;19932;-75
2022/03/30 08:50:55;;;;;;;;;;;;;;;;;;4988873;28;20096;-76
2022/03/30 08:53:22;;;;;;;;;;;;;;;;;;4987920;28;19965;-76
2022/03/30 08:55:55;;;;;;;;;;;;;;;;;;4988010;28;19980;-76
2022/03/30 08:58:21;;;;;;;;;;;;;;;;;;4984197;28;19972;-76
2022/03/30 09:00:48;;;;;;;;;;;;;;;;;;4984839;28;19973;-77
2022/03/30 09:03:21;;;;;;;;;;;;;;;;;;4989566;28;19926;-76
2022/03/30 09:05:48;;;;;;;;;;;;;;;;;;4985692;28;19937;-77
2022/03/30 09:08:14;;;;;;;;;;;;;;;;;;4989440;28;19967;-76
2022/03/30 09:10:44;;;;;;;;;;;;;;;;;;4993238;28;20013;-76
2022/03/30 09:13:10;;;;;;;;;;;;;;;;;;4992959;28;20019;-76
2022/03/30 09:15:38;;;;;;;;;;;;;;;;;;4989615;28;19926;-77
2022/03/30 09:18:05;;;;;;;;;;;;;;;;;;4990172;28;19930;-77
2022/03/30 09:20:33;;;;;;;;;;;;;;;;;;4992006;28;20012;-77
2022/03/30 09:23:00;;;;;;;;;;;;;;;;;;4991033;28;19972;-77
2022/03/30 09:25:41;;;;;;;;;;;;;;;;;;4990688;28;19922;-77
2022/03/30 09:28:07;;;;;;;;;;;;;;;;;;4992838;28;20008;-77
2022/03/30 09:30:33;;;;;;;;;;;;;;;;;;4991360;28;19926;-77
2022/03/30 09:33:00;;;;;;;;;;;;;;;;;;4971001;28;20468;-76
2022/03/30 09:35:27;;;;;;;;;;;;;;;;;;4973344;28;19969;-76
2022/03/30 09:37:54;;;;;;;;;;;;;;;;;;4972552;28;20379;-76
2022/03/30 09:40:20;;;;;;;;;;;;;;;;;;4970966;28;19980;-76
2022/03/30 09:42:46;;;;;;;;;;;;;;;;;;4971364;28;19961;-76
2022/03/30 09:45:13;;;;;;;;;;;;;;;;;;4972819;28;19973;-76
2022/03/30 09:47:39;;;;;;;;;;;;;;;;;;4970795;28;20016;-76
2022/03/30 09:50:06;;;;;;;;;;;;;;;;;;4968455;28;20727;-75
2022/03/30 09:52:34;;;;;;;;;;;;;;;;;;4970188;28;19977;-76
2022/03/30 09:55:00;;;;;;;;;;;;;;;;;;4970439;28;20020;-75
2022/03/30 09:57:27;;;;;;;;;;;;;;;;;;4972747;28;20004;-75
2022/03/30 09:59:57;;;;;;;;;;;;;;;;;;4970843;28;20016;-75
2022/03/30 10:02:23;;;;;;;;;;;;;;;;;;4972630;28;20021;-75
2022/03/30 10:04:50;;;;;;;;;;;;;;;;;;4972576;28;19922;-75
2022/03/30 10:07:19;;;;;;;;;;;;;;;;;;4971131;28;20020;-76
2022/03/30 10:09:45;;;;;;;;;;;;;;;;;;4972730;28;19961;-76
2022/03/30 10:12:14;;;;;;;;;;;;;;;;;;4972182;28;19953;-75
2022/03/30 10:14:41;;;;;;;;;;;;;;;;;;4972024;28;19965;-76
2022/03/30 10:17:07;;;;;;;;;;;;;;;;;;4972024;28;20389;-76
2022/03/30 10:19:34;;;;;;;;;;;;;;;;;;4967808;28;20028;-75
2022/03/30 10:22:01;;;;;;;;;;;;;;;;;;4970657;28;19976;-75
2022/03/30 10:24:27;;;;;;;;;;;;;;;;;;4970535;28;20019;-75
2022/03/30 10:26:55;;;;;;;;;;;;;;;;;;4971122;28;19984;-76
2022/03/30 10:29:27;;;;;;;;;;;;;;;;;;4970921;28;19973;-76
2022/03/30 10:31:53;;;;;;;;;;;;;;;;;;4972567;28;20005;-76
2022/03/30 10:34:20;;;;;;;;;;;;;;;;;;4991753;28;19921;-75
2022/03/30 10:36:53;;;;;;;;;;;;;;;;;;4989480;28;20009;-76
2022/03/30 10:39:24;;;;;;;;;;;;;;;;;;4988321;28;19976;-76
2022/03/30 10:42:12;;;;;;;;;;;;;;;;;;4988912;28;19932;-76
2022/03/30 10:44:46;;;;;;;;;;;;;;;;;;4988252;28;19953;-76
2022/03/30 10:47:13;;;;;;;;;;;;;;;;;;4990986;28;19972;-76
2022/03/30 10:49:39;;;;;;;;;;;;;;;;;;4989993;28;19968;-76
2022/03/30 10:52:09;;;;;;;;;;;;;;;;;;4983764;28;19984;-76
2022/03/30 10:54:35;;;;;;;;;;;;;;;;;;4984375;28;20056;-76
2022/03/30 10:57:01;;;;;;;;;;;;;;;;;;4989121;28;20421;-75
2022/03/30 10:59:29;;;;;;;;;;;;;;;;;;4988855;28;19961;-76
2022/03/30 11:01:56;;;;;;;;;;;;;;;;;;4990702;28;19961;-75
2022/03/30 11:04:24;;;;;;;;;;;;;;;;;;4990380;28;20340;-75
2022/03/30 11:06:52;;;;;;;;;;;;;;;;;;4988574;28;19975;-75
2022/03/30 11:09:19;;;;;;;;;;;;;;;;;;4989990;28;20345;-75
2022/03/30 11:11:45;;;;;;;;;;;;;;;;;;4990475;28;20005;-76
2022/03/30 11:14:14;;;;;;;;;;;;;;;;;;4986883;28;20449;-75
2022/03/30 11:16:41;;;;;;;;;;;;;;;;;;4990489;28;19922;-75
2022/03/30 11:19:07;;;;;;;;;;;;;;;;;;4990706;28;19964;-75
2022/03/30 11:21:33;;;;;;;;;;;;;;;;;;4987579;28;20880;-75
2022/03/30 11:24:00;;;;;;;;;;;;;;;;;;4984134;28;20590;-76
2022/03/30 11:26:26;;;;;;;;;;;;;;;;;;4989134;28;20407;-75
2022/03/30 11:28:53;;;;;;;;;;;;;;;;;;4985833;28;22469;-75
2022/03/30 11:31:19;;;;;;;;;;;;;;;;;;4986850;28;19972;-75
2022/03/30 11:33:52;;;;;;;;;;;;;;;;;;4985851;28;19921;-75
2022/03/30 11:36:19;;;;;;;;;;;;;;;;;;4988244;28;20001;-75
2022/03/30 11:38:45;;;;;;;;;;;;;;;;;;4989766;28;19976;-75
2022/03/30 11:41:13;;;;;;;;;;;;;;;;;;4989993;28;20052;-75
2022/03/30 11:46:38;;;;;;;;;;;;;;;;;;4931877;28;20041;-74
2022/03/30 11:49:04;;;;;;;;;;;;;;;;;;4990544;28;20390;-74
2022/03/30 11:51:32;;;;;;;;;;;;;;;;;;4985688;28;19965;-74
2022/03/30 11:53:58;;;;;;;;;;;;;;;;;;4986312;28;19932;-74
2022/03/30 11:56:25;;;;;;;;;;;;;;;;;;4982917;28;19960;-72
2022/03/30 11:58:51;;;;;;;;;;;;;;;;;;4988074;28;20012;-72
2022/03/30 12:01:24;;;;;;;;;;;;;;;;;;4987873;28;20381;-73
2022/03/30 12:03:54;;;;;;;;;;;;;;;;;;4985945;28;19957;-73
2022/03/30 12:06:21;;;;;;;;;;;;;;;;;;4989709;28;20483;-73
2022/03/30 12:08:53;;;;;;;;;;;;;;;;;;4988878;28;19926;-73
2022/03/30 12:11:20;;;;;;;;;;;;;;;;;;4985552;28;20724;-73
2022/03/30 12:13:46;;;;;;;;;;;;;;;;;;4988445;28;20336;-73
2022/03/30 12:16:13;;;;;;;;;;;;;;;;;;4974560;28;20007;-73
2022/03/30 12:18:41;;;;;;;;;;;;;;;;;;4987959;28;20393;-72
2022/03/30 12:21:07;;;;;;;;;;;;;;;;;;4988259;28;20352;-72
2022/03/30 12:23:34;;;;;;;;;;;;;;;;;;4989730;28;19964;-72
2022/03/30 12:26:01;;;;;;;;;;;;;;;;;;4988576;28;19933;-72
2022/03/30 12:28:27;;;;;;;;;;;;;;;;;;4986089;28;19972;-72
2022/03/30 12:30:57;;;;;;;;;;;;;;;;;;4985765;28;19976;-72
2022/03/30 12:33:23;;;;;;;;;;;;;;;;;;4987990;28;20032;-72
2022/03/30 12:35:52;;;;;;;;;;;;;;;;;;4989207;28;19981;-72
2022/03/30 12:38:19;;;;;;;;;;;;;;;;;;4989553;28;19969;-72
2022/03/30 12:40:46;;;;;;;;;;;;;;;;;;4988160;28;19985;-72
2022/03/30 12:43:12;;;;;;;;;;;;;;;;;;4983734;28;20024;-72
2022/03/30 12:45:39;;;;;;;;;;;;;;;;;;4987912;28;20376;-72
2022/03/30 12:48:05;;;;;;;;;;;;;;;;;;4989183;28;19949;-72
2022/03/30 12:50:33;;;;;;;;;;;;;;;;;;4987724;28;20017;-72
2022/03/30 12:53:01;;;;;;;;;;;;;;;;;;4988337;28;20017;-71
2022/03/30 12:55:28;;;;;;;;;;;;;;;;;;4987644;28;19961;-71
2022/03/30 12:57:54;;;;;;;;;;;;;;;;;;4986401;28;19968;-72
2022/03/30 13:00:22;;;;;;;;;;;;;;;;;;4987337;28;19979;-71
2022/03/30 13:02:48;;;;;;;;;;;;;;;;;;4988498;28;19953;-71
2022/03/30 13:05:19;;;;;;;;;;;;;;;;;;4988147;28;19932;-71
2022/03/30 13:07:52;;;;;;;;;;;;;;;;;;4987175;28;19957;-72
2022/03/30 13:10:20;;;;;;;;;;;;;;;;;;4987511;28;19933;-71
2022/03/30 13:12:51;;;;;;;;;;;;;;;;;;4987327;28;19989;-71
2022/03/30 13:15:23;;;;;;;;;;;;;;;;;;4986966;28;20021;-71
2022/03/30 13:17:50;;;;;;;;;;;;;;;;;;4987536;28;19953;-71
2022/03/30 13:20:16;;;;;;;;;;;;;;;;;;4985240;28;20432;-71
2022/03/30 13:22:49;;;;;;;;;;;;;;;;;;4986067;28;19961;-71
2022/03/30 13:25:16;;;;;;;;;;;;;;;;;;4986722;28;20281;-71
2022/03/30 13:27:42;;;;;;;;;;;;;;;;;;4987799;28;19965;-71
2022/03/30 13:30:12;;;;;;;;;;;;;;;;;;4985620;28;19980;-70
2022/03/30 13:32:38;;;;;;;;;;;;;;;;;;4985494;28;19922;-71
2022/03/30 13:35:05;;;;;;;;;;;;;;;;;;4986275;28;20028;-71
2022/03/30 13:37:32;;;;;;;;;;;;;;;;;;4989575;28;19988;-71
2022/03/30 13:39:58;;;;;;;;;;;;;;;;;;4987573;28;19972;-71
2022/03/30 13:42:24;;;;;;;;;;;;;;;;;;4985459;28;20013;-71
2022/03/30 13:44:57;;;;;;;;;;;;;;;;;;4987162;28;20404;-70
2022/03/30 13:47:23;;;;;;;;;;;;;;;;;;4985257;28;19976;-70
2022/03/30 13:49:50;;;;;;;;;;;;;;;;;;4984769;28;20021;-71
2022/03/30 13:52:18;;;;;;;;;;;;;;;;;;4983359;28;19932;-70
2022/03/30 13:54:44;;;;;;;;;;;;;;;;;;4989200;28;19968;-70
2022/03/30 13:57:11;;;;;;;;;;;;;;;;;;4990639;28;20404;-71
2022/03/30 13:59:42;;;;;;;;;;;;;;;;;;4990581;28;19972;-70
2022/03/30 14:02:08;;;;;;;;;;;;;;;;;;4990034;28;20009;-71
2022/03/30 14:04:34;;;;;;;;;;;;;;;;;;4989249;28;20000;-70
2022/03/30 14:07:03;;;;;;;;;;;;;;;;;;4988313;28;20384;-70
2022/03/30 14:09:34;;;;;;;;;;;;;;;;;;4987993;28;19980;-70
2022/03/30 14:12:00;;;;;;;;;;;;;;;;;;4992275;28;19925;-70
2022/03/30 14:14:28;;;;;;;;;;;;;;;;;;4991502;28;19961;-70
2022/03/30 14:16:54;;;;;;;;;;;;;;;;;;4992737;28;20048;-71
2022/03/30 14:19:22;;;;;;;;;;;;;;;;;;4990926;28;19968;-70
2022/03/30 14:21:48;;;;;;;;;;;;;;;;;;4988885;28;20344;-70
2022/03/30 14:24:15;;;;;;;;;;;;;;;;;;4992412;28;20484;-70
2022/03/30 14:26:41;;;;;;;;;;;;;;;;;;4989782;28;20062;-70
2022/03/30 14:29:07;;;;;;;;;;;;;;;;;;4988626;28;20024;-69
2022/03/30 14:31:37;;;;;;;;;;;;;;;;;;4985172;28;19925;-69
2022/03/30 14:34:10;;;;;;;;;;;;;;;;;;4989440;28;20332;-69
2022/03/30 14:36:37;;;;;;;;;;;;;;;;;;4992169;28;20000;-70
2022/03/30 14:41:04;;;;;;;2.58;0.63;;;;;;;;;;5057908;27;21205;-68
2022/03/30 14:43:37;;;;;;;0.85;0.68;;;;;;;;;;5061014;28;20411;-68
2022/03/30 14:46:03;;;;;;;4.30;0.65;;;;;;;;;;5054611;28;20477;-68
2022/03/30 14:48:30;;;;;;;1.80;0.50;;;;;;;;;;5055005;28;20051;-68
2022/03/30 14:51:03;;;;;;;0.88;0.70;;;;;;;;;;5053756;28;20076;-69
2022/03/30 14:53:31;;;;;;;0.60;0.50;;;;;;;;;;5058046;28;20183;-68
2022/03/30 14:55:58;;;;;;;0.70;0.43;;;;;;;;;;5054678;28;20493;-67
2022/03/30 14:58:25;;;;;;;2.15;0.85;;;;;;;;;;5054009;28;20089;-68
2022/03/30 15:00:52;;;;;;;1.38;0.73;;;;;;;;;;5057823;28;20149;-67
2022/03/30 15:03:18;;;;;;;1.00;0.60;;;;;;;;;;5054377;28;20126;-67
2022/03/30 15:05:46;;;;;;;0.95;0.80;;;;;;;;;;5057224;28;20307;-67
2022/03/30 15:08:13;;;;;;;0.90;0.90;;;;;;;;;;5056412;28;20046;-67
2022/03/30 15:10:39;;;;;;;1.10;0.70;;;;;;;;;;5070610;28;20135;-67
2022/03/30 15:13:12;;;;;;;1.75;0.63;;;;;;;;;;5075175;28;20053;-67
2022/03/30 15:15:39;;;;;;;1.60;0.80;;;;;;;;;;5076684;28;20076;-67
2022/03/30 15:18:05;;;;;;;1.10;0.60;;;;;;;;;;5079610;28;20488;-67
2022/03/30 15:20:38;;;;;;;0.93;0.77;;;;;;;;;;5076478;28;20087;-67
2022/03/30 15:23:05;;;;;;;1.02;0.70;;;;;;;;;;5074662;28;20071;-67
2022/03/30 15:25:37;;;;;;;2.25;1.10;;;;;;;;;;5072394;28;20054;-67
2022/03/30 15:28:10;;;;;;;1.50;1.20;;;;;;;;;;5072586;28;20075;-67
2022/03/30 15:30:37;;;;;;;2.47;1.13;;;;;;;;;;5073976;28;20084;-67
2022/03/30 15:33:04;;;;;;;3.15;1.90;;;;;;;;;;5076406;28;20058;-67
2022/03/30 15:35:33;;;;;;;5.70;2.08;;;;;;;;;;5073905;28;20052;-67
2022/03/30 15:38:00;;;;;;;5.65;3.30;;;;;;;;;;5074704;28;20082;-66
2022/03/30 15:40:26;;;;;;;3.55;2.17;;;;;;;;;;5074499;28;20144;-67
2022/03/30 15:42:57;;;;;;;3.15;1.77;;;;;;;;;;5077119;28;20097;-69
2022/03/30 15:45:23;;;;;;;1.92;1.08;;;;;;;;;;5073724;28;20139;-67
2022/03/30 15:47:50;;;;;;;8.63;1.40;;;;;;;;;;5076445;28;20068;-67
2022/03/30 15:50:16;;;;;;;0.93;0.80;;;;;;;;;;5072557;28;20080;-67
2022/03/30 15:52:43;;;;;;;3.70;0.70;;;;;;;;;;5061235;28;20144;-67
2022/03/30 15:55:11;;;;;;;2.13;1.25;;;;;;;;;;5061318;28;20079;-67
2022/03/30 15:57:39;;;;;;;2.15;1.20;;;;;;;;;;5062692;28;20468;-67
2022/03/30 16:00:07;;;;;;;2.28;1.45;;;;;;;;;;5058885;28;20071;-67
2022/03/30 16:02:33;;;;;;;3.40;1.00;;;;;;;;;;5062000;28;20068;-68
2022/03/30 16:05:07;;;;;;;1.70;1.20;;;;;;;;;;5062133;28;20102;-67
2022/03/30 16:07:33;;;;;;;0.68;0.68;;;;;;;;;;5045520;28;20736;-67
2022/03/30 16:09:59;;;;;;;1.08;0.90;;;;;;;;;;5059833;28;20147;-67
2022/03/30 16:12:28;;;;;;;1.48;0.88;;;;;;;;;;5058859;28;20270;-67
2022/03/30 16:14:54;;;;;;;1.65;0.80;;;;;;;;;;5061012;28;20056;-67
2022/03/30 16:17:22;;;;;;;2.92;0.70;;;;;;;;;;5058017;28;20100;-67
2022/03/30 16:19:52;;;;;;;0.68;0.68;;;;;;;;;;5059385;28;20570;-67
2022/03/30 16:22:21;;;;;;;1.02;0.82;;;;;;;;;;5064112;28;20503;-67
2022/03/30 16:24:48;;;;;;;2.20;1.02;;;;;;;;;;5061959;28;20264;-67
2022/03/30 16:27:15;;;;;;;;;;;;;;;;;;5059513;28;20187;-67
2022/03/30 16:29:42;;;;;;;0.52;0.52;;;;;;;;;;5060451;28;19968;-66
2022/03/30 16:32:11;;;;;;;1.60;0.88;;;;;;;;;;5060820;28;20558;-66
2022/03/30 16:34:38;;;;;;;1.83;0.82;;;;;;;;;;5060207;28;20952;-66
2022/03/30 16:37:05;;;;;;;1.90;0.93;;;;;;;;;;5059437;28;20512;-66
2022/03/30 16:39:32;;;;;;;1.52;0.75;;;;;;;;;;5059439;28;20397;-66
2022/03/30 16:42:00;;;;;;;5.30;0.90;;;;;;;;;;5058190;28;20076;-66
2022/03/30 16:44:26;;;;;;;0.63;0.63;;;;;;;;;;5060711;28;20052;-65